Huvudsida
METAR-TAF:

METAR-TAF

Flygplatser :

Sundsvall-Härnösand, Sverige

Sundsvall Timrå Airport

latitud: 62-32N, longitud: 017-27E, höjd: 4 m

Aktuellt väderrapport

Denna rapport gjordes för 36 minuter sedan, klockan 17:50 UTC
Vind 5 kt från syd
Temperatur 2°C
Fuktighet 87%
Tryck 1015 hPa
Sikt 10 km eller mer
Inga moln under 1 500 m eller inga cumulonimbus

METAR: ESNN 221750Z 17005KT CAVOK 02/00 Q1015

Tid: 20:26 (18:26 UTC)

Väderprognos

Denna rapport gjordes för 56 minuter sedan, klockan 17:30 UTC
Prognos gäller från 22 kl. 18 UTC till 22 kl. 22 UTC
Vind 6 kt från syd/sydost
Sikt 10 km eller mer
Inga moln under 1 500 m eller inga cumulonimbus

TAF: ESNN 221730Z 2218/2222 15006KT CAVOK

Aktuella väderrapporter och prognoser från 4000 flygplatser (METAR- och TAF-rapporter).

De tillgängliga stationerna syns som gula och röda prickar på kartan.

För musen över prickarna för att se namnen på stationerna.

Klicka sedan för att få väderrapporter och prognoser.

För att ändra kartan: Klicka på de gröna knapparna med ett svart kors på för att zooma in; den gröna knappen med ett streck på för att zooma ut; eller på de gröna pilarna för angränsande kartor.


METAR-TAF: